Time;durP1;ratioP1;P1;durP2;ratioP2;P2;SDS_P1;SDS_P2;PMS_P1;PMS_P2;Temp;Humidity;BMP_temperature;BMP_pressure;BME280_temperature;BME280_humidity;BME280_pressure;Samples;Min_cycle;Max_cycle;Signal;HPM_P1;HPM_P2
2024/02/17 00:01:56;;;;;;;;;;;13.00;90.50;;;;;;4967046;28;19930;-61
2024/02/17 00:04:30;;;;;;;;;;;13.00;90.40;;;;;;4968805;28;19945;-61
2024/02/17 00:07:03;;;;;;;;;;;13.00;90.40;;;;;;4969083;28;19977;-60
2024/02/17 00:09:36;;;;;;;;;;;13.00;90.40;;;;;;4970518;28;19926;-61
2024/02/17 00:12:09;;;;;;;;;;;12.90;90.20;;;;;;4968384;28;19936;-61
2024/02/17 00:14:42;;;;;;;;;;;13.00;90.30;;;;;;4965906;28;20017;-60
2024/02/17 00:17:17;;;;;;;;;;;13.00;90.20;;;;;;4968043;28;19957;-61
2024/02/17 00:19:50;;;;;;;;;;;12.90;90.10;;;;;;4965013;28;20014;-61
2024/02/17 00:22:23;;;;;;;;;;;12.90;90.20;;;;;;4969647;28;20025;-61
2024/02/17 00:24:57;;;;;;;;;;;12.90;90.20;;;;;;4969822;28;20021;-59
2024/02/17 00:27:29;;;;;;;;;;;12.90;90.10;;;;;;4953375;28;19930;-59
2024/02/17 00:30:04;;;;;;;;;;;12.90;90.10;;;;;;4968413;28;19927;-59
2024/02/17 00:32:39;;;;;;;;;;;12.80;90.10;;;;;;4969191;28;19957;-58
2024/02/17 00:35:13;;;;;;;;;;;12.80;90.00;;;;;;4967126;28;20341;-59
2024/02/17 00:37:46;;;;;;;;;;;12.90;90.00;;;;;;4967585;28;19937;-60
2024/02/17 00:40:19;;;;;;;;;;;12.80;90.00;;;;;;4967404;28;19949;-58
2024/02/17 00:42:53;;;;;;;;;;;12.80;89.90;;;;;;4967301;28;19926;-59
2024/02/17 00:45:25;;;;;;;;;;;12.80;90.00;;;;;;4969455;28;19930;-59
2024/02/17 00:48:00;;;;;;;;;;;12.80;89.70;;;;;;4967854;28;20003;-60
2024/02/17 00:50:32;;;;;;;;;;;12.80;89.90;;;;;;4969224;28;19933;-61
2024/02/17 00:53:06;;;;;;;;;;;12.80;89.90;;;;;;4965047;28;20342;-59
2024/02/17 00:55:39;;;;;;;;;;;12.80;90.00;;;;;;4968428;28;19934;-59
2024/02/17 00:58:12;;;;;;;;;;;12.70;90.00;;;;;;4967203;28;19933;-58
2024/02/17 01:00:45;;;;;;;;;;;12.70;90.00;;;;;;4967272;28;19934;-59
2024/02/17 01:03:19;;;;;;;;;;;12.70;90.00;;;;;;4966714;28;19936;-58
2024/02/17 01:05:53;;;;;;;;;;;12.70;89.90;;;;;;4966219;28;20025;-59
2024/02/17 01:08:26;;;;;;;;;;;12.70;89.90;;;;;;4967720;28;19926;-59
2024/02/17 01:10:59;;;;;;;;;;;12.70;89.90;;;;;;4958135;28;19934;-59
2024/02/17 01:13:25;;;;;;;;;;;12.70;89.90;;;;;;4966767;28;20382;-59
2024/02/17 01:15:59;;;;;;;;;;;12.70;89.90;;;;;;4966182;28;20436;-58
2024/02/17 01:18:33;;;;;;;;;;;12.70;89.80;;;;;;4963398;28;20568;-62
2024/02/17 01:21:07;;;;;;;;;;;12.70;89.90;;;;;;4960981;28;19973;-59
2024/02/17 01:23:46;;;;;;;;;;;12.70;89.90;;;;;;4964857;28;19930;-59
2024/02/17 01:26:20;;;;;;;;;;;12.70;89.90;;;;;;4963456;28;19929;-59
2024/02/17 01:28:53;;;;;;;;;;;12.70;89.80;;;;;;4952798;28;19938;-58
2024/02/17 01:31:26;;;;;;;;;;;12.60;89.80;;;;;;4962582;28;19973;-59
2024/02/17 01:34:00;;;;;;;;;;;12.60;89.90;;;;;;4963131;28;20244;-60
2024/02/17 01:36:33;;;;;;;;;;;12.60;89.90;;;;;;4958705;28;19926;-60
2024/02/17 01:39:07;;;;;;;;;;;12.50;89.90;;;;;;4964177;28;19930;-59
2024/02/17 01:41:40;;;;;;;;;;;12.50;89.90;;;;;;4955269;28;19934;-60
2024/02/17 01:44:14;;;;;;;;;;;12.40;89.90;;;;;;4956850;28;19953;-62
2024/02/17 01:46:48;;;;;;;;;;;12.40;90.00;;;;;;4962753;28;19926;-60
2024/02/17 01:49:22;;;;;;;;;;;12.40;89.90;;;;;;4959023;28;19953;-59
2024/02/17 01:51:56;;;;;;;;;;;12.40;90.00;;;;;;4963107;28;19929;-60
2024/02/17 01:54:30;;;;;;;;;;;12.40;89.90;;;;;;4963287;28;19926;-59
2024/02/17 01:57:05;;;;;;;;;;;12.40;89.80;;;;;;4960263;28;19940;-58
2024/02/17 01:59:40;;;;;;;;;;;12.40;89.90;;;;;;4960430;28;20029;-60
2024/02/17 02:02:13;;;;;;;;;;;12.30;89.70;;;;;;4961752;28;19930;-59
2024/02/17 02:04:56;;;;;;;;;;;12.30;89.70;;;;;;4958362;28;20017;-60
2024/02/17 02:07:30;;;;;;;;;;;12.20;89.60;;;;;;4967498;28;19954;-58
2024/02/17 02:10:03;;;;;;;;;;;12.20;89.50;;;;;;4960184;28;19926;-60
2024/02/17 02:12:37;;;;;;;;;;;12.10;89.50;;;;;;4966429;28;19985;-60
2024/02/17 02:15:10;;;;;;;;;;;12.10;89.60;;;;;;4960803;28;20049;-59
2024/02/17 02:17:45;;;;;;;;;;;12.00;89.40;;;;;;4962468;28;19930;-59
2024/02/17 02:20:14;;;;;;;;;;;11.90;89.60;;;;;;4959902;28;19932;-60
2024/02/17 02:22:48;;;;;;;;;;;11.90;89.50;;;;;;4956346;28;19926;-60
2024/02/17 02:25:24;;;;;;;;;;;11.90;89.50;;;;;;4961729;28;20305;-60
2024/02/17 02:27:58;;;;;;;;;;;11.90;89.30;;;;;;4961086;28;20033;-63
2024/02/17 02:30:32;;;;;;;;;;;11.70;89.40;;;;;;4967821;28;19969;-61
2024/02/17 02:33:05;;;;;;;;;;;11.60;89.50;;;;;;4964635;28;19944;-59
2024/02/17 02:35:38;;;;;;;;;;;11.60;89.60;;;;;;4967283;28;19930;-60
2024/02/17 02:38:11;;;;;;;;;;;11.40;89.60;;;;;;4965239;28;19930;-60
2024/02/17 02:40:44;;;;;;;;;;;11.40;89.60;;;;;;4968468;28;20306;-62
2024/02/17 02:43:18;;;;;;;;;;;11.30;89.50;;;;;;4964425;28;20412;-59
2024/02/17 02:45:52;;;;;;;;;;;11.20;89.40;;;;;;4959930;28;20396;-64
2024/02/17 02:48:25;;;;;;;;;;;11.20;89.50;;;;;;4969655;28;19926;-65
2024/02/17 02:50:58;;;;;;;;;;;11.10;89.40;;;;;;4970220;28;20670;-64
2024/02/17 02:53:32;;;;;;;;;;;11.10;89.50;;;;;;4968436;28;19937;-64
2024/02/17 02:56:05;;;;;;;;;;;11.10;89.50;;;;;;4965912;28;19942;-64
2024/02/17 02:58:40;;;;;;;;;;;11.00;89.60;;;;;;4970842;28;19930;-65
2024/02/17 03:01:14;;;;;;;;;;;11.00;89.60;;;;;;4966847;28;19970;-64
2024/02/17 03:03:47;;;;;;;;;;;11.00;89.60;;;;;;4970427;28;19930;-65
2024/02/17 03:06:21;;;;;;;;;;;11.00;89.70;;;;;;4969641;28;19930;-64
2024/02/17 03:08:55;;;;;;;;;;;10.90;89.90;;;;;;4971200;28;19926;-65
2024/02/17 03:11:28;;;;;;;;;;;10.90;89.80;;;;;;4968478;28;19927;-65
2024/02/17 03:13:56;;;;;;;;;;;10.80;89.90;;;;;;4969496;28;19926;-64
2024/02/17 03:16:30;;;;;;;;;;;10.80;90.00;;;;;;4970535;28;19930;-65
2024/02/17 03:19:04;;;;;;;;;;;10.80;90.10;;;;;;4966128;28;20032;-66
2024/02/17 03:21:37;;;;;;;;;;;10.80;90.10;;;;;;4970294;28;20024;-65
2024/02/17 03:24:10;;;;;;;;;;;10.80;90.20;;;;;;4969639;28;20008;-66
2024/02/17 03:26:43;;;;;;;;;;;10.80;90.20;;;;;;4972033;28;19926;-65
2024/02/17 03:29:11;;;;;;;;;;;10.80;90.10;;;;;;4969028;28;19926;-64
2024/02/17 03:31:44;;;;;;;;;;;10.80;90.00;;;;;;4969323;28;19945;-65
2024/02/17 03:34:17;;;;;;;;;;;10.80;89.90;;;;;;4966467;28;19926;-65
2024/02/17 03:36:50;;;;;;;;;;;10.70;89.90;;;;;;4971434;28;20437;-65
2024/02/17 03:39:23;;;;;;;;;;;10.70;90.00;;;;;;4962929;28;20325;-65
2024/02/17 03:41:56;;;;;;;;;;;10.70;90.00;;;;;;4970307;28;20278;-64
2024/02/17 03:44:30;;;;;;;;;;;10.70;89.90;;;;;;4968408;28;19926;-65
2024/02/17 03:47:04;;;;;;;;;;;10.70;89.90;;;;;;4969751;28;20000;-65
2024/02/17 03:49:37;;;;;;;;;;;10.60;89.90;;;;;;4970575;28;19937;-64
2024/02/17 03:52:10;;;;;;;;;;;10.60;90.10;;;;;;4969219;28;19937;-65
2024/02/17 03:54:43;;;;;;;;;;;10.60;90.10;;;;;;4968058;28;19927;-59
2024/02/17 03:57:17;;;;;;;;;;;10.60;90.00;;;;;;4970155;28;19934;-60
2024/02/17 03:59:57;;;;;;;;;;;10.60;90.00;;;;;;4969632;28;19933;-60
2024/02/17 04:02:39;;;;;;;;;;;10.50;89.90;;;;;;4967183;28;19930;-60
2024/02/17 04:05:12;;;;;;;;;;;10.40;89.90;;;;;;4967867;28;22010;-59
2024/02/17 04:07:45;;;;;;;;;;;10.40;89.80;;;;;;4967977;28;19929;-60
2024/02/17 04:10:18;;;;;;;;;;;10.40;89.70;;;;;;4972178;28;20453;-62
2024/02/17 04:12:51;;;;;;;;;;;10.40;89.70;;;;;;4967679;28;19961;-59
2024/02/17 04:15:26;;;;;;;;;;;10.30;89.70;;;;;;4967771;28;19930;-60
2024/02/17 04:18:00;;;;;;;;;;;10.30;89.80;;;;;;4969647;28;19930;-60
2024/02/17 04:20:33;;;;;;;;;;;10.30;89.70;;;;;;4966893;28;19930;-60
2024/02/17 04:23:06;;;;;;;;;;;10.30;89.70;;;;;;4970399;28;20373;-60
2024/02/17 04:25:40;;;;;;;;;;;10.30;89.70;;;;;;4967182;28;19937;-61
2024/02/17 04:28:14;;;;;;;;;;;10.30;89.90;;;;;;4969519;28;20329;-59
2024/02/17 04:30:48;;;;;;;;;;;10.20;90.10;;;;;;4965317;28;19930;-60
2024/02/17 04:33:15;;;;;;;;;;;10.20;90.20;;;;;;4969559;28;19985;-59
2024/02/17 04:35:48;;;;;;;;;;;10.20;90.30;;;;;;4970037;28;19937;-58
2024/02/17 04:38:21;;;;;;;;;;;10.20;90.30;;;;;;4968417;28;19934;-60
2024/02/17 04:40:55;;;;;;;;;;;10.20;90.50;;;;;;4966891;28;19973;-60
2024/02/17 04:43:28;;;;;;;;;;;10.20;90.50;;;;;;4969728;28;20362;-60
2024/02/17 04:46:03;;;;;;;;;;;10.20;90.50;;;;;;4966970;28;19930;-60
2024/02/17 04:48:37;;;;;;;;;;;10.20;90.50;;;;;;4968324;28;20305;-60
2024/02/17 04:51:11;;;;;;;;;;;10.20;90.50;;;;;;4968338;28;20069;-60
2024/02/17 04:53:44;;;;;;;;;;;10.20;90.40;;;;;;4970167;28;19934;-59
2024/02/17 04:56:17;;;;;;;;;;;10.20;90.30;;;;;;4969047;28;19926;-60
2024/02/17 04:58:50;;;;;;;;;;;10.20;90.30;;;;;;4965239;28;19937;-59
2024/02/17 05:01:24;;;;;;;;;;;10.10;90.20;;;;;;4968573;28;20013;-60
2024/02/17 05:03:58;;;;;;;;;;;10.10;90.20;;;;;;4969020;28;20033;-62
2024/02/17 05:06:31;;;;;;;;;;;10.10;90.00;;;;;;4967622;28;19926;-62
2024/02/17 05:09:04;;;;;;;;;;;10.10;90.00;;;;;;4968666;28;19933;-63
2024/02/17 05:11:40;;;;;;;;;;;10.00;89.80;;;;;;4969639;28;19930;-61
2024/02/17 05:14:15;;;;;;;;;;;9.90;89.70;;;;;;4965498;28;19926;-62
2024/02/17 05:16:50;;;;;;;;;;;9.90;89.60;;;;;;4968074;28;19930;-62
2024/02/17 05:19:24;;;;;;;;;;;9.90;89.60;;;;;;4969463;28;19944;-62
2024/02/17 05:21:58;;;;;;;;;;;9.90;89.50;;;;;;4969290;28;19980;-61
2024/02/17 05:24:31;;;;;;;;;;;9.90;89.50;;;;;;4970398;28;19941;-62
2024/02/17 05:27:04;;;;;;;;;;;9.80;89.50;;;;;;4966656;28;19934;-62
2024/02/17 05:29:38;;;;;;;;;;;9.80;89.50;;;;;;4964342;28;19936;-62
2024/02/17 05:32:12;;;;;;;;;;;9.70;89.50;;;;;;4965129;28;19941;-62
2024/02/17 05:34:46;;;;;;;;;;;9.60;89.50;;;;;;4968496;28;20279;-63
2024/02/17 05:37:19;;;;;;;;;;;9.60;89.50;;;;;;4966727;28;20023;-61
2024/02/17 05:39:53;;;;;;;;;;;9.60;89.40;;;;;;4969459;28;19981;-62
2024/02/17 05:42:27;;;;;;;;;;;9.50;89.50;;;;;;4961266;28;20013;-62
2024/02/17 05:45:01;;;;;;;;;;;9.50;89.50;;;;;;4967159;28;20020;-62
2024/02/17 05:47:35;;;;;;;;;;;9.60;89.40;;;;;;4968732;28;20058;-63
2024/02/17 05:50:09;;;;;;;;;;;9.50;89.40;;;;;;4968754;28;19926;-62
2024/02/17 05:52:42;;;;;;;;;;;9.50;89.50;;;;;;4968141;28;20369;-62
2024/02/17 05:55:15;;;;;;;;;;;9.50;89.50;;;;;;4969600;28;19933;-62
2024/02/17 05:57:48;;;;;;;;;;;9.50;89.50;;;;;;4965311;28;19926;-62
2024/02/17 06:00:22;;;;;;;;;;;9.40;89.40;;;;;;4962302;28;19930;-61
2024/02/17 06:02:56;;;;;;;;;;;9.50;89.40;;;;;;4965270;28;19930;-62
2024/02/17 06:05:32;;;;;;;;;;;9.40;89.40;;;;;;4966613;28;20416;-63
2024/02/17 06:08:05;;;;;;;;;;;9.40;89.40;;;;;;4967060;28;19926;-61
2024/02/17 06:10:32;;;;;;;;;;;9.30;89.70;;;;;;4963969;28;19926;-62
2024/02/17 06:13:06;;;;;;;;;;;9.30;89.60;;;;;;4966530;28;20016;-62
2024/02/17 06:15:42;;;;;;;;;;;9.30;89.80;;;;;;4965662;28;19926;-60
2024/02/17 06:21:11;;;;;;;;;;;9.40;89.80;;;;;;4969160;28;19926;-60
2024/02/17 06:23:44;;;;;;;;;;;9.40;89.90;;;;;;4972112;28;19930;-64
2024/02/17 06:26:21;;;;;;;;;;;9.40;90.10;;;;;;4969654;28;19926;-61
2024/02/17 06:28:55;;;;;;;;;;;9.40;90.00;;;;;;4967415;28;20326;-61
2024/02/17 06:31:28;;;;;;;;;;;9.40;90.10;;;;;;4965502;28;19981;-60
2024/02/17 06:34:03;;;;;;;;;;;9.40;90.00;;;;;;4970854;28;20373;-62
2024/02/17 06:36:30;;;;;;;;;;;9.50;90.10;;;;;;4969845;28;19926;-61
2024/02/17 06:39:03;;;;;;;;;;;9.50;90.00;;;;;;4968596;28;20421;-60
2024/02/17 06:41:36;;;;;;;;;;;9.50;90.00;;;;;;4969564;28;19926;-60
2024/02/17 06:44:09;;;;;;;;;;;9.40;90.10;;;;;;4966762;28;19926;-60
2024/02/17 06:46:43;;;;;;;;;;;9.40;90.20;;;;;;4965216;28;19930;-61
2024/02/17 06:49:18;;;;;;;;;;;9.40;90.40;;;;;;4972036;28;19936;-60
2024/02/17 06:51:51;;;;;;;;;;;9.40;90.40;;;;;;4971638;28;20369;-61
2024/02/17 06:54:24;;;;;;;;;;;9.40;90.40;;;;;;4969944;28;20012;-59
2024/02/17 06:56:57;;;;;;;;;;;9.50;90.50;;;;;;4969901;28;19957;-61
2024/02/17 06:59:31;;;;;;;;;;;9.50;90.50;;;;;;4969114;28;20064;-60
2024/02/17 07:02:04;;;;;;;;;;;9.50;90.40;;;;;;4966424;28;19934;-61
2024/02/17 07:04:38;;;;;;;;;;;9.50;90.50;;;;;;4965210;28;19992;-61
2024/02/17 07:07:12;;;;;;;;;;;9.50;90.60;;;;;;4972707;28;19934;-60
2024/02/17 07:09:45;;;;;;;;;;;9.60;90.70;;;;;;4971465;28;19932;-59
2024/02/17 07:12:18;;;;;;;;;;;9.60;90.70;;;;;;4972158;28;19930;-60
2024/02/17 07:14:51;;;;;;;;;;;9.60;90.70;;;;;;4968909;28;20012;-60
2024/02/17 07:17:25;;;;;;;;;;;9.60;90.70;;;;;;4967224;28;19930;-61
2024/02/17 07:19:59;;;;;;;;;;;9.70;90.60;;;;;;4969440;28;20017;-61
2024/02/17 07:22:33;;;;;;;;;;;9.70;90.60;;;;;;4968849;28;19973;-61
2024/02/17 07:25:06;;;;;;;;;;;9.70;90.60;;;;;;4967474;28;19930;-60
2024/02/17 07:27:40;;;;;;;;;;;9.70;90.70;;;;;;4971435;28;19981;-59
2024/02/17 07:30:13;;;;;;;;;;;9.70;90.60;;;;;;4960616;28;19941;-60
2024/02/17 07:32:46;;;;;;;;;;;9.80;90.80;;;;;;4968220;28;19941;-59
2024/02/17 07:35:21;;;;;;;;;;;9.80;90.70;;;;;;4970779;28;19930;-61
2024/02/17 07:37:55;;;;;;;;;;;9.80;90.80;;;;;;4969970;28;20321;-60
2024/02/17 07:40:29;;;;;;;;;;;9.80;90.90;;;;;;4968870;28;20020;-59
2024/02/17 07:43:02;;;;;;;;;;;9.90;91.00;;;;;;4967365;28;19980;-59
2024/02/17 07:45:36;;;;;;;;;;;9.90;90.90;;;;;;4968282;28;19926;-59
2024/02/17 07:48:10;;;;;;;;;;;9.90;90.90;;;;;;4965468;28;19958;-59
2024/02/17 07:50:44;;;;;;;;;;;9.90;91.00;;;;;;4970251;28;19952;-61
2024/02/17 07:53:17;;;;;;;;;;;10.00;91.10;;;;;;4967198;28;19930;-59
2024/02/17 07:55:50;;;;;;;;;;;10.00;90.90;;;;;;4968933;28;19930;-59
2024/02/17 07:58:37;;;;;;;;;;;10.00;90.90;;;;;;4966654;28;21386;-59
2024/02/17 08:01:19;;;;;;;;;;;10.00;91.00;;;;;;4968787;28;19930;-59
2024/02/17 08:03:52;;;;;;;;;;;10.10;90.80;;;;;;4967674;28;20000;-60
2024/02/17 08:06:26;;;;;;;;;;;10.10;91.00;;;;;;4970242;28;19926;-59
2024/02/17 08:09:00;;;;;;;;;;;10.10;91.10;;;;;;4968354;28;20370;-58
2024/02/17 08:11:35;;;;;;;;;;;10.10;91.20;;;;;;4970516;28;20028;-59
2024/02/17 08:14:10;;;;;;;;;;;10.10;91.20;;;;;;4964822;28;20008;-60
2024/02/17 08:16:43;;;;;;;;;;;10.10;91.20;;;;;;4967366;28;20005;-59
2024/02/17 08:19:16;;;;;;;;;;;10.20;91.30;;;;;;4966663;28;19934;-59
2024/02/17 08:21:50;;;;;;;;;;;10.20;91.10;;;;;;4968004;28;19934;-59
2024/02/17 08:24:24;;;;;;;;;;;10.30;91.00;;;;;;4965228;28;20087;-59
2024/02/17 08:26:57;;;;;;;;;;;10.20;91.10;;;;;;4969411;28;19930;-59
2024/02/17 08:29:30;;;;;;;;;;;10.20;91.30;;;;;;4966924;28;19926;-58
2024/02/17 08:32:03;;;;;;;;;;;10.20;91.10;;;;;;4967044;28;20440;-61
2024/02/17 08:34:36;;;;;;;;;;;10.30;91.20;;;;;;4968168;28;20361;-62
2024/02/17 08:37:12;;;;;;;;;;;10.30;91.10;;;;;;4966789;28;20378;-62
2024/02/17 08:39:47;;;;;;;;;;;10.30;91.20;;;;;;4969313;28;19932;-61
2024/02/17 08:42:21;;;;;;;;;;;10.30;91.40;;;;;;4966851;28;20412;-62
2024/02/17 08:44:54;;;;;;;;;;;10.30;91.30;;;;;;4965073;28;19926;-62
2024/02/17 08:54:58;;;;;;;;;;;10.50;91.20;;;;;;4964028;28;19984;-62
2024/02/17 08:57:32;;;;;;;;;;;10.50;91.00;;;;;;4964870;28;20025;-63
2024/02/17 09:00:05;;;;;;;;;;;10.60;91.30;;;;;;4965836;28;19930;-61
2024/02/17 09:02:39;;;;;;;;;;;10.70;91.30;;;;;;4963511;28;19930;-62
2024/02/17 09:05:13;;;;;;;;;;;10.70;91.20;;;;;;4966830;28;19960;-63
2024/02/17 09:07:46;;;;;;;;;;;10.70;91.30;;;;;;4965427;28;19933;-62
2024/02/17 09:10:20;;;;;;;;;;;10.70;91.10;;;;;;4969557;28;19957;-62
2024/02/17 09:12:54;;;;;;;;;;;10.70;91.10;;;;;;4966680;28;19930;-62
2024/02/17 09:15:27;;;;;;;;;;;10.70;91.00;;;;;;4967598;28;19937;-62
2024/02/17 09:18:00;;;;;;;;;;;10.80;91.20;;;;;;4961573;28;19930;-62
2024/02/17 09:20:34;;;;;;;;;;;10.70;91.00;;;;;;4966548;28;19926;-62
2024/02/17 09:23:07;;;;;;;;;;;10.70;91.00;;;;;;4965693;28;19933;-61
2024/02/17 09:25:42;;;;;;;;;;;10.90;91.10;;;;;;4966866;28;19927;-61
2024/02/17 09:28:16;;;;;;;;;;;10.90;91.00;;;;;;4965190;28;20027;-62
2024/02/17 09:30:49;;;;;;;;;;;10.90;90.90;;;;;;4964404;28;19972;-62
2024/02/17 09:33:28;;;;;;;;;;;11.00;90.90;;;;;;4967328;28;19933;-62
2024/02/17 09:36:01;;;;;;;;;;;11.00;90.90;;;;;;4965948;28;19934;-63
2024/02/17 09:38:34;;;;;;;;;;;11.00;91.00;;;;;;4965734;28;19934;-62
2024/02/17 09:41:08;;;;;;;;;;;11.10;91.00;;;;;;4966122;28;19930;-63
2024/02/17 09:43:42;;;;;;;;;;;11.10;91.00;;;;;;4965595;28;19930;-60
2024/02/17 09:46:08;;;;;;;;;;;11.10;90.80;;;;;;4964881;28;19930;-59
2024/02/17 09:48:41;;;;;;;;;;;11.10;90.90;;;;;;4965769;28;20385;-59
2024/02/17 09:51:14;;;;;;;;;;;11.10;90.80;;;;;;4960588;28;19934;-59
2024/02/17 09:53:48;;;;;;;;;;;11.10;90.70;;;;;;4967948;28;19930;-59
2024/02/17 09:56:22;;;;;;;;;;;11.10;90.60;;;;;;4970098;28;20392;-59
2024/02/17 09:58:56;;;;;;;;;;;11.20;90.80;;;;;;4967399;28;19926;-61
2024/02/17 10:01:29;;;;;;;;;;;11.20;90.70;;;;;;4968112;28;20811;-58
2024/02/17 10:03:57;;;;;;;;;;;11.30;90.70;;;;;;4971390;28;20024;-59
2024/02/17 10:06:31;;;;;;;;;;;11.40;90.50;;;;;;4969673;28;19981;-60
2024/02/17 10:09:04;;;;;;;;;;;11.40;90.70;;;;;;4971282;28;19970;-60
2024/02/17 10:11:39;;;;;;;;;;;11.40;90.40;;;;;;4970319;28;19933;-59
2024/02/17 10:14:15;;;;;;;;;;;11.40;90.40;;;;;;4968254;28;19933;-60
2024/02/17 10:16:48;;;;;;;;;;;11.40;90.30;;;;;;4965596;28;20023;-60
2024/02/17 10:19:21;;;;;;;;;;;11.40;90.40;;;;;;4967619;28;19930;-59
2024/02/17 10:21:54;;;;;;;;;;;11.50;90.30;;;;;;4967884;28;20428;-60
2024/02/17 10:24:27;;;;;;;;;;;11.50;90.20;;;;;;4969235;28;19936;-58
2024/02/17 10:27:01;;;;;;;;;;;11.60;90.10;;;;;;4970261;28;19934;-59
2024/02/17 10:29:35;;;;;;;;;;;11.60;90.00;;;;;;4967822;28;20325;-59
2024/02/17 10:32:08;;;;;;;;;;;11.70;89.80;;;;;;4967064;28;20432;-60
2024/02/17 10:34:41;;;;;;;;;;;11.60;89.80;;;;;;4966448;28;19926;-59
2024/02/17 10:37:14;;;;;;;;;;;11.70;89.70;;;;;;4970095;28;20013;-60
2024/02/17 10:39:47;;;;;;;;;;;11.70;89.70;;;;;;4970753;28;19941;-60
2024/02/17 10:42:21;;;;;;;;;;;11.70;89.60;;;;;;4967026;28;19933;-61
2024/02/17 10:44:55;;;;;;;;;;;11.70;89.60;;;;;;4966035;28;19934;-61
2024/02/17 10:47:32;;;;;;;;;;;11.70;89.50;;;;;;4971654;28;19969;-60
2024/02/17 10:50:10;;;;;;;;;;;11.70;89.30;;;;;;4967360;28;19930;-60
2024/02/17 10:52:44;;;;;;;;;;;11.70;89.40;;;;;;4970063;28;19937;-65
2024/02/17 10:55:22;;;;;;;;;;;11.70;89.30;;;;;;4969813;28;19989;-64
2024/02/17 10:58:00;;;;;;;;;;;11.80;89.30;;;;;;4967330;28;20382;-64
2024/02/17 11:00:34;;;;;;;;;;;11.80;89.10;;;;;;4962300;28;20026;-64
2024/02/17 11:03:02;;;;;;;;;;;11.90;89.00;;;;;;4961428;28;19930;-63
2024/02/17 11:05:37;;;;;;;;;;;11.90;89.10;;;;;;4964677;28;20044;-65
2024/02/17 11:08:11;;;;;;;;;;;12.00;89.00;;;;;;4968604;28;19992;-64
2024/02/17 11:10:44;;;;;;;;;;;12.00;89.00;;;;;;4969392;28;19934;-64
2024/02/17 11:13:22;;;;;;;;;;;12.10;88.90;;;;;;4967947;28;19933;-65
2024/02/17 11:16:00;;;;;;;;;;;12.20;88.80;;;;;;4965438;28;20104;-63
2024/02/17 11:18:36;;;;;;;;;;;12.20;88.70;;;;;;4965430;28;20352;-64
2024/02/17 11:21:11;;;;;;;;;;;12.20;88.70;;;;;;4967167;28;19933;-64
2024/02/17 11:23:44;;;;;;;;;;;12.20;88.60;;;;;;4967568;28;19936;-66
2024/02/17 11:26:17;;;;;;;;;;;12.30;88.50;;;;;;4969559;28;19926;-65
2024/02/17 11:28:52;;;;;;;;;;;12.50;88.40;;;;;;4968904;28;19926;-65
2024/02/17 11:31:27;;;;;;;;;;;12.50;88.30;;;;;;4967250;28;20460;-66
2024/02/17 11:34:02;;;;;;;;;;;12.60;88.20;;;;;;4967236;28;19929;-65
2024/02/17 11:36:35;;;;;;;;;;;12.60;88.10;;;;;;4968097;28;19930;-65
2024/02/17 11:39:09;;;;;;;;;;;12.60;88.00;;;;;;4964668;28;19933;-64
2024/02/17 11:41:42;;;;;;;;;;;12.60;87.90;;;;;;4968776;28;19930;-65
2024/02/17 11:44:17;;;;;;;;;;;12.50;87.90;;;;;;4967619;28;19973;-66
2024/02/17 11:46:51;;;;;;;;;;;12.50;87.70;;;;;;4961713;28;19970;-64
2024/02/17 11:49:24;;;;;;;;;;;12.50;87.70;;;;;;4970347;28;19980;-64
2024/02/17 11:52:01;;;;;;;;;;;12.60;87.60;;;;;;4965806;28;19949;-64
2024/02/17 11:54:35;;;;;;;;;;;12.60;87.40;;;;;;4967792;28;19926;-65
2024/02/17 11:57:09;;;;;;;;;;;12.60;87.40;;;;;;4967760;28;19933;-64
2024/02/17 11:59:49;;;;;;;;;;;12.60;87.20;;;;;;4963753;28;20021;-65
2024/02/17 12:02:23;;;;;;;;;;;12.70;87.30;;;;;;4963557;28;19930;-65
2024/02/17 12:04:56;;;;;;;;;;;12.70;87.20;;;;;;4967841;28;19937;-71
2024/02/17 12:07:30;;;;;;;;;;;12.70;87.10;;;;;;4969080;28;20297;-71
2024/02/17 12:10:03;;;;;;;;;;;12.70;86.90;;;;;;4968702;28;20377;-70
2024/02/17 12:12:43;;;;;;;;;;;12.80;86.90;;;;;;4966315;28;19941;-71
2024/02/17 12:15:17;;;;;;;;;;;12.80;86.60;;;;;;4967591;28;19930;-72
2024/02/17 12:17:52;;;;;;;;;;;12.90;86.40;;;;;;4967501;28;19934;-73
2024/02/17 12:20:26;;;;;;;;;;;12.80;85.70;;;;;;4968023;28;20325;-71
2024/02/17 12:22:59;;;;;;;;;;;12.90;85.50;;;;;;4966398;28;20289;-71
2024/02/17 12:25:33;;;;;;;;;;;12.90;85.70;;;;;;4968453;28;20366;-71
2024/02/17 12:28:07;;;;;;;;;;;13.00;84.90;;;;;;4969323;28;19937;-70
2024/02/17 12:30:47;;;;;;;;;;;12.90;84.90;;;;;;4969398;28;19934;-71
2024/02/17 12:33:21;;;;;;;;;;;12.90;84.70;;;;;;4962253;28;19930;-69
2024/02/17 12:35:55;;;;;;;;;;;13.00;84.70;;;;;;4966212;28;19941;-70
2024/02/17 12:38:28;;;;;;;;;;;13.00;84.70;;;;;;4964734;28;19931;-70
2024/02/17 12:41:01;;;;;;;;;;;13.10;84.60;;;;;;4968388;28;20021;-70
2024/02/17 12:43:36;;;;;;;;;;;13.10;84.30;;;;;;4969756;28;19941;-71
2024/02/17 12:46:22;;;;;;;;;;;13.10;84.40;;;;;;4968006;28;20378;-71
2024/02/17 12:48:55;;;;;;;;;;;13.10;84.60;;;;;;4968693;28;19934;-71
2024/02/17 12:51:30;;;;;;;;;;;13.10;84.30;;;;;;4966806;28;19930;-71
2024/02/17 12:54:03;;;;;;;;;;;13.10;84.20;;;;;;4969259;28;20385;-71
2024/02/17 12:56:36;;;;;;;;;;;13.20;84.30;;;;;;4959583;28;19941;-71
2024/02/17 12:59:09;;;;;;;;;;;13.20;84.10;;;;;;4959048;28;19930;-70
2024/02/17 13:05:18;;;;;;;;;;;13.20;84.10;;;;;;4959138;28;19932;-70
2024/02/17 13:07:51;;;;;;;;;;;13.20;83.50;;;;;;4960810;28;19934;-71
2024/02/17 13:10:24;;;;;;;;;;;13.10;83.40;;;;;;4961934;28;19934;-71
2024/02/17 13:12:58;;;;;;;;;;;13.10;83.20;;;;;;4966288;28;20833;-71
2024/02/17 13:15:31;;;;;;;;;;;13.10;83.50;;;;;;4967291;28;20508;-62
2024/02/17 13:18:17;;;;;;;;;;;13.10;83.30;;;;;;4965054;28;20768;-62
2024/02/17 13:20:51;;;;;;;;;;;13.10;83.20;;;;;;4963094;28;19934;-61
2024/02/17 13:23:32;;;;;;;;;;;13.10;83.10;;;;;;4962682;28;20479;-62
2024/02/17 13:26:05;;;;;;;;;;;13.10;83.20;;;;;;4966515;28;19930;-62
2024/02/17 13:28:38;;;;;;;;;;;13.10;82.80;;;;;;4964605;28;19941;-62
2024/02/17 13:31:13;;;;;;;;;;;13.10;83.00;;;;;;4962679;28;19930;-63
2024/02/17 13:33:46;;;;;;;;;;;13.10;82.80;;;;;;4958151;28;19938;-62
2024/02/17 13:36:21;;;;;;;;;;;13.20;83.20;;;;;;4950658;28;21427;-63
2024/02/17 13:38:55;;;;;;;;;;;13.10;83.10;;;;;;4962243;28;20009;-62
2024/02/17 13:41:29;;;;;;;;;;;13.20;82.80;;;;;;4961998;28;19945;-63
2024/02/17 13:44:02;;;;;;;;;;;13.20;82.90;;;;;;4962602;28;20382;-63
2024/02/17 13:46:35;;;;;;;;;;;13.20;82.90;;;;;;4966673;28;19934;-62
2024/02/17 13:49:10;;;;;;;;;;;13.20;82.70;;;;;;4963464;28;19930;-63
2024/02/17 13:51:45;;;;;;;;;;;13.20;82.60;;;;;;4966572;28;19926;-63
2024/02/17 13:54:19;;;;;;;;;;;13.20;82.30;;;;;;4966814;28;19930;-63
2024/02/17 14:00:28;;;;;;;;;;;13.20;82.20;;;;;;4956629;28;20013;-62
2024/02/17 14:03:01;;;;;;;;;;;13.20;82.10;;;;;;4965355;28;20013;-62
2024/02/17 14:05:34;;;;;;;;;;;13.20;81.60;;;;;;4967924;28;19926;-62
2024/02/17 14:08:09;;;;;;;;;;;13.20;82.20;;;;;;4963330;28;19933;-63
2024/02/17 14:10:42;;;;;;;;;;;13.20;81.90;;;;;;4967167;28;20362;-62
2024/02/17 14:13:15;;;;;;;;;;;13.20;82.00;;;;;;4966276;28;19929;-63
2024/02/17 14:15:54;;;;;;;;;;;13.10;82.20;;;;;;4967398;28;20088;-62
2024/02/17 14:18:29;;;;;;;;;;;13.10;81.80;;;;;;4967204;28;19926;-62
2024/02/17 14:21:02;;;;;;;;;;;13.10;81.60;;;;;;4967079;28;19971;-63
2024/02/17 14:23:37;;;;;;;;;;;13.10;82.30;;;;;;4966471;28;19930;-62
2024/02/17 14:26:10;;;;;;;;;;;13.10;81.90;;;;;;4967576;28;19930;-61
2024/02/17 14:28:45;;;;;;;;;;;13.10;81.90;;;;;;4966670;28;19930;-59
2024/02/17 14:31:20;;;;;;;;;;;13.10;81.80;;;;;;4964547;28;19973;-60
2024/02/17 14:33:53;;;;;;;;;;;13.10;81.80;;;;;;4964403;28;19930;-61
2024/02/17 14:36:26;;;;;;;;;;;13.10;81.90;;;;;;4963945;28;20012;-61
2024/02/17 14:39:25;;;;;;;;;;;13.00;81.90;;;;;;4961926;28;19937;-61
2024/02/17 14:41:59;;;;;;;;;;;13.00;81.80;;;;;;4970497;28;19930;-61
2024/02/17 14:44:34;;;;;;;;;;;13.00;82.10;;;;;;4970814;28;19926;-61
2024/02/17 14:47:07;;;;;;;;;;;12.90;82.20;;;;;;4966310;28;19926;-61
2024/02/17 14:49:40;;;;;;;;;;;12.90;82.20;;;;;;4967118;28;20342;-61
2024/02/17 14:52:19;;;;;;;;;;;12.90;82.60;;;;;;4969316;28;19949;-64
2024/02/17 14:54:53;;;;;;;;;;;12.90;82.50;;;;;;4965071;28;20028;-61
2024/02/17 14:57:29;;;;;;;;;;;12.90;82.70;;;;;;4969569;28;20025;-60
2024/02/17 15:00:02;;;;;;;;;;;12.80;82.60;;;;;;4967301;28;20504;-61
2024/02/17 15:02:35;;;;;;;;;;;12.80;82.90;;;;;;4970511;28;19938;-60
2024/02/17 15:05:09;;;;;;;;;;;12.80;83.10;;;;;;4967965;28;19972;-59
2024/02/17 15:07:42;;;;;;;;;;;12.70;83.30;;;;;;4969500;28;19933;-61
2024/02/17 15:10:17;;;;;;;;;;;12.70;83.20;;;;;;4959681;28;20068;-62
2024/02/17 15:12:52;;;;;;;;;;;12.70;83.40;;;;;;4964708;28;19937;-62
2024/02/17 15:15:28;;;;;;;;;;;12.70;83.40;;;;;;4968971;28;20370;-61